Time;durP1;ratioP1;P1;durP2;ratioP2;P2;SDS_P1;SDS_P2;PMS_P1;PMS_P2;Temp;Humidity;BMP_temperature;BMP_pressure;BME280_temperature;BME280_humidity;BME280_pressure;Samples;Min_cycle;Max_cycle;Signal;HPM_P1;HPM_P2
2022/09/11 00:01:55;;;;;;;248.83;146.53;;;;;;;;;;4956495;28;20197;-53
2022/09/11 00:04:21;;;;;;;243.13;144.60;;;;;;;;;;4954107;28;20220;-53
2022/09/11 00:06:47;;;;;;;289.13;164.07;;;;;;;;;;4951784;28;20193;-53
2022/09/11 00:09:13;;;;;;;292.63;157.95;;;;;;;;;;4950887;28;20194;-53
2022/09/11 00:11:40;;;;;;;255.68;147.93;;;;;;;;;;4957077;28;20273;-53
2022/09/11 00:14:06;;;;;;;267.50;155.05;;;;;;;;;;4951247;28;20626;-53
2022/09/11 00:16:34;;;;;;;263.35;151.07;;;;;;;;;;4954857;28;20686;-53
2022/09/11 00:19:00;;;;;;;242.73;144.35;;;;;;;;;;4949307;28;20305;-53
2022/09/11 00:21:28;;;;;;;316.63;174.32;;;;;;;;;;4953471;28;20190;-53
2022/09/11 00:23:54;;;;;;;266.20;152.43;;;;;;;;;;4955658;28;20342;-53
2022/09/11 00:26:20;;;;;;;258.70;148.98;;;;;;;;;;4952377;28;20647;-53
2022/09/11 00:28:46;;;;;;;272.92;158.68;;;;;;;;;;4954125;28;20187;-53
2022/09/11 00:31:14;;;;;;;270.67;155.57;;;;;;;;;;4952501;28;20238;-53
2022/09/11 00:33:40;;;;;;;307.83;171.05;;;;;;;;;;4952828;28;20296;-53
2022/09/11 00:36:08;;;;;;;281.90;157.52;;;;;;;;;;4949253;28;20212;-53
2022/09/11 00:38:35;;;;;;;264.75;148.95;;;;;;;;;;4949577;28;20195;-53
2022/09/11 00:41:02;;;;;;;272.38;154.30;;;;;;;;;;4956594;28;20187;-53
2022/09/11 00:43:30;;;;;;;267.05;152.77;;;;;;;;;;4943658;28;20222;-53
2022/09/11 00:46:01;;;;;;;302.55;164.05;;;;;;;;;;4952669;28;20184;-53
2022/09/11 00:48:30;;;;;;;310.10;170.52;;;;;;;;;;4953435;28;20235;-53
2022/09/11 00:50:56;;;;;;;270.30;149.85;;;;;;;;;;4955405;28;20651;-53
2022/09/11 00:53:24;;;;;;;261.25;147.48;;;;;;;;;;4951138;28;20179;-53
2022/09/11 00:55:52;;;;;;;263.45;149.27;;;;;;;;;;4950478;28;20183;-53
2022/09/11 00:58:21;;;;;;;264.95;149.30;;;;;;;;;;4953071;28;20221;-53
2022/09/11 01:00:47;;;;;;;222.70;132.45;;;;;;;;;;4954183;28;20191;-53
2022/09/11 01:03:13;;;;;;;253.23;149.68;;;;;;;;;;4956572;28;20300;-53
2022/09/11 01:05:40;;;;;;;305.98;172.15;;;;;;;;;;4952771;28;20279;-53
2022/09/11 01:08:06;;;;;;;237.07;143.23;;;;;;;;;;4956190;28;20504;-52
2022/09/11 01:10:51;;;;;;;259.13;150.98;;;;;;;;;;4960232;28;20459;-52
2022/09/11 01:13:40;;;;;;;234.55;142.15;;;;;;;;;;4960130;28;20190;-51
2022/09/11 01:16:05;;;;;;;252.65;144.98;;;;;;;;;;4957827;28;20182;-52
2022/09/11 01:18:36;;;;;;;283.02;161.27;;;;;;;;;;4963039;28;20189;-52
2022/09/11 01:21:02;;;;;;;235.68;141.02;;;;;;;;;;4956771;28;20218;-52
2022/09/11 01:23:46;;;;;;;231.07;140.25;;;;;;;;;;4957484;28;20308;-52
2022/09/11 01:26:31;;;;;;;270.95;148.25;;;;;;;;;;4958245;28;20186;-51
2022/09/11 01:28:57;;;;;;;269.30;157.02;;;;;;;;;;4948871;28;20226;-52
2022/09/11 01:31:24;;;;;;;267.13;149.63;;;;;;;;;;4955501;28;20218;-51
2022/09/11 01:33:56;;;;;;;288.65;164.45;;;;;;;;;;4953169;28;20261;-51
2022/09/11 01:36:27;;;;;;;260.73;148.65;;;;;;;;;;4956688;28;20195;-52
2022/09/11 01:38:55;;;;;;;266.23;150.90;;;;;;;;;;4953558;28;20197;-52
2022/09/11 01:41:26;;;;;;;221.52;135.75;;;;;;;;;;4955527;28;20639;-52
2022/09/11 01:43:55;;;;;;;264.15;148.80;;;;;;;;;;4953616;28;20681;-52
2022/09/11 01:46:22;;;;;;;278.05;154.35;;;;;;;;;;4955321;28;20279;-52
2022/09/11 01:48:51;;;;;;;281.15;159.35;;;;;;;;;;4949586;28;20186;-52
2022/09/11 01:51:20;;;;;;;200.75;124.20;;;;;;;;;;4950516;28;20518;-52
2022/09/11 01:53:47;;;;;;;296.98;159.00;;;;;;;;;;4943944;28;20202;-53
2022/09/11 01:56:21;;;;;;;257.80;145.63;;;;;;;;;;4950842;28;20281;-53
2022/09/11 01:58:47;;;;;;;235.07;138.50;;;;;;;;;;4949516;28;20686;-53
2022/09/11 02:01:17;;;;;;;256.13;147.52;;;;;;;;;;4954056;28;20225;-53
2022/09/11 02:03:46;;;;;;;235.48;137.73;;;;;;;;;;4956460;28;20213;-53
2022/09/11 02:06:15;;;;;;;270.27;151.10;;;;;;;;;;4952876;28;20663;-54
2022/09/11 02:08:44;;;;;;;240.57;140.57;;;;;;;;;;4952625;28;20611;-52
2022/09/11 02:11:12;;;;;;;259.33;147.02;;;;;;;;;;4949091;28;20498;-53
2022/09/11 02:13:55;;;;;;;252.23;145.52;;;;;;;;;;4952505;28;20955;-52
2022/09/11 02:16:34;;;;;;;252.73;137.10;;;;;;;;;;4955768;28;20209;-53
2022/09/11 02:19:02;;;;;;;220.53;131.27;;;;;;;;;;4951266;28;20186;-53
2022/09/11 02:21:28;;;;;;;255.90;143.80;;;;;;;;;;4951672;28;20412;-52
2022/09/11 02:23:54;;;;;;;272.60;153.43;;;;;;;;;;4952147;28;20577;-53
2022/09/11 02:26:23;;;;;;;252.10;140.03;;;;;;;;;;4951334;28;20186;-53
2022/09/11 02:28:49;;;;;;;204.00;128.60;;;;;;;;;;4948790;28;20741;-53
2022/09/11 02:31:15;;;;;;;222.90;133.47;;;;;;;;;;4948240;28;20246;-53
2022/09/11 02:33:41;;;;;;;241.33;139.77;;;;;;;;;;4950883;28;20222;-53
2022/09/11 02:36:29;;;;;;;293.67;161.55;;;;;;;;;;4948495;28;20187;-53
2022/09/11 02:39:05;;;;;;;270.20;146.90;;;;;;;;;;4947942;28;20202;-53
2022/09/11 02:41:43;;;;;;;265.57;146.10;;;;;;;;;;4952915;28;20725;-52
2022/09/11 02:44:14;;;;;;;240.80;136.00;;;;;;;;;;4946998;28;20213;-53
2022/09/11 02:46:55;;;;;;;248.52;138.55;;;;;;;;;;4948230;28;20179;-53
2022/09/11 02:49:25;;;;;;;254.33;140.33;;;;;;;;;;4956735;28;20589;-52
2022/09/11 02:52:01;;;;;;;226.90;130.55;;;;;;;;;;4970139;28;20182;-52
2022/09/11 02:54:29;;;;;;;226.10;129.43;;;;;;;;;;4969946;28;20210;-51
2022/09/11 02:57:18;;;;;;;223.13;129.10;;;;;;;;;;4969810;28;20190;-52
2022/09/11 03:00:10;;;;;;;228.43;132.10;;;;;;;;;;4969987;28;20641;-52
2022/09/11 03:02:39;;;;;;;209.03;126.83;;;;;;;;;;4949322;28;20315;-52
2022/09/11 03:05:06;;;;;;;216.37;124.70;;;;;;;;;;4950389;28;20215;-52
2022/09/11 03:07:32;;;;;;;210.87;121.67;;;;;;;;;;4963986;28;20538;-52
2022/09/11 03:09:58;;;;;;;195.55;116.68;;;;;;;;;;4973457;28;20177;-52
2022/09/11 03:12:24;;;;;;;226.20;129.27;;;;;;;;;;4973721;28;20229;-52
2022/09/11 03:14:50;;;;;;;218.90;123.60;;;;;;;;;;4973383;28;20217;-52
2022/09/11 03:17:16;;;;;;;187.50;115.17;;;;;;;;;;4973651;28;20273;-52
2022/09/11 03:19:42;;;;;;;231.80;130.00;;;;;;;;;;4973376;28;20277;-52
2022/09/11 03:22:08;;;;;;;220.23;125.80;;;;;;;;;;4973396;28;20190;-51
2022/09/11 03:24:34;;;;;;;233.33;129.70;;;;;;;;;;4972781;28;20594;-52
2022/09/11 03:27:00;;;;;;;228.13;133.33;;;;;;;;;;4973151;28;20639;-52
2022/09/11 03:29:26;;;;;;;208.47;122.83;;;;;;;;;;4973285;28;20205;-52
2022/09/11 03:31:52;;;;;;;216.57;127.80;;;;;;;;;;4973199;28;20175;-52
2022/09/11 03:34:18;;;;;;;213.77;127.47;;;;;;;;;;4972516;28;20209;-52
2022/09/11 03:36:46;;;;;;;222.10;130.60;;;;;;;;;;4973458;28;20178;-51
2022/09/11 03:39:12;;;;;;;190.20;117.53;;;;;;;;;;4972659;28;20689;-52
2022/09/11 03:41:38;;;;;;;209.60;120.73;;;;;;;;;;4973099;28;20533;-52
2022/09/11 03:44:04;;;;;;;192.37;115.73;;;;;;;;;;4972586;28;20208;-52
2022/09/11 03:46:31;;;;;;;218.77;121.90;;;;;;;;;;4972985;28;20182;-52
2022/09/11 03:48:58;;;;;;;223.27;125.57;;;;;;;;;;4972658;28;20178;-51
2022/09/11 03:51:25;;;;;;;217.97;122.90;;;;;;;;;;4972710;28;20234;-52
2022/09/11 03:53:52;;;;;;;200.67;119.23;;;;;;;;;;4972679;28;20701;-52
2022/09/11 03:56:19;;;;;;;235.97;129.17;;;;;;;;;;4972761;28;20201;-51
2022/09/11 03:58:45;;;;;;;260.60;138.80;;;;;;;;;;4961501;28;20203;-53
2022/09/11 04:01:12;;;;;;;279.63;145.90;;;;;;;;;;4954313;28;20261;-53
2022/09/11 04:03:39;;;;;;;281.40;147.03;;;;;;;;;;4950757;28;20587;-53
2022/09/11 04:06:05;;;;;;;276.83;151.80;;;;;;;;;;4955396;28;20190;-54
2022/09/11 04:08:32;;;;;;;273.47;146.37;;;;;;;;;;4956173;28;20218;-53
2022/09/11 04:10:59;;;;;;;262.40;144.93;;;;;;;;;;4957137;28;20190;-53
2022/09/11 04:13:36;;;;;;;322.70;165.30;;;;;;;;;;4948954;28;20283;-53
2022/09/11 04:16:03;;;;;;;267.73;142.67;;;;;;;;;;4951084;28;20786;-53
2022/09/11 04:18:31;;;;;;;304.77;161.23;;;;;;;;;;4952663;28;20640;-53
2022/09/11 04:20:57;;;;;;;240.57;136.57;;;;;;;;;;4956298;28;20632;-53
2022/09/11 04:23:23;;;;;;;244.93;135.13;;;;;;;;;;4954865;28;20563;-53
2022/09/11 04:25:49;;;;;;;267.42;142.02;;;;;;;;;;4952610;28;20179;-53
2022/09/11 04:28:15;;;;;;;267.50;144.90;;;;;;;;;;4952411;28;20806;-53
2022/09/11 04:30:41;;;;;;;250.00;136.03;;;;;;;;;;4951020;28;20714;-54
2022/09/11 04:33:07;;;;;;;267.23;144.10;;;;;;;;;;4953066;28;20190;-54
2022/09/11 04:35:37;;;;;;;290.27;149.53;;;;;;;;;;4952649;28;20206;-54
2022/09/11 04:38:03;;;;;;;326.97;157.90;;;;;;;;;;4947895;28;20201;-53
2022/09/11 04:40:29;;;;;;;330.57;156.73;;;;;;;;;;4957495;28;20610;-54
2022/09/11 04:42:55;;;;;;;365.83;173.30;;;;;;;;;;4951700;28;20190;-53
2022/09/11 04:45:21;;;;;;;325.60;156.63;;;;;;;;;;4949049;28;20362;-53
2022/09/11 04:47:50;;;;;;;286.07;142.03;;;;;;;;;;4956213;28;20367;-53
2022/09/11 04:50:16;;;;;;;342.87;164.30;;;;;;;;;;4948314;28;20190;-53
2022/09/11 04:52:44;;;;;;;392.47;185.47;;;;;;;;;;4951272;28;20591;-54
2022/09/11 04:55:10;;;;;;;327.37;158.87;;;;;;;;;;4949344;28;20682;-53
2022/09/11 04:57:36;;;;;;;341.47;167.07;;;;;;;;;;4954954;28;20198;-53
2022/09/11 05:00:03;;;;;;;338.07;163.33;;;;;;;;;;4947003;28;20559;-53
2022/09/11 05:02:29;;;;;;;318.80;153.83;;;;;;;;;;4957317;28;20191;-53
2022/09/11 05:04:55;;;;;;;310.30;150.23;;;;;;;;;;4948622;28;20217;-54
2022/09/11 05:07:21;;;;;;;285.30;140.67;;;;;;;;;;4951785;28;20684;-54
2022/09/11 05:09:47;;;;;;;407.67;189.10;;;;;;;;;;4945541;28;20443;-54
2022/09/11 05:12:13;;;;;;;332.40;157.70;;;;;;;;;;4946714;28;20198;-53
2022/09/11 05:14:39;;;;;;;361.67;168.93;;;;;;;;;;4952819;28;20215;-53
2022/09/11 05:17:05;;;;;;;347.43;172.00;;;;;;;;;;4952774;28;20234;-54
2022/09/11 05:19:31;;;;;;;366.03;169.40;;;;;;;;;;4951286;28;20791;-54
2022/09/11 05:21:57;;;;;;;329.27;158.33;;;;;;;;;;4947959;28;20710;-53
2022/09/11 05:24:22;;;;;;;342.73;161.43;;;;;;;;;;4951718;28;20228;-53
2022/09/11 05:26:48;;;;;;;329.67;154.23;;;;;;;;;;4953534;28;20921;-53
2022/09/11 05:29:15;;;;;;;353.97;161.37;;;;;;;;;;4945320;28;20603;-53
2022/09/11 05:31:41;;;;;;;322.27;153.40;;;;;;;;;;4958597;28;20185;-53
2022/09/11 05:34:07;;;;;;;385.70;180.60;;;;;;;;;;4952196;28;20563;-53
2022/09/11 05:36:34;;;;;;;302.47;146.27;;;;;;;;;;4953526;28;20629;-53
2022/09/11 05:39:00;;;;;;;375.17;174.90;;;;;;;;;;4953102;28;20201;-53
2022/09/11 05:41:27;;;;;;;311.10;149.23;;;;;;;;;;4952228;28;20748;-53
2022/09/11 05:43:53;;;;;;;337.80;161.37;;;;;;;;;;4948516;28;20219;-53
2022/09/11 05:46:20;;;;;;;350.47;165.93;;;;;;;;;;4952312;28;20301;-53
2022/09/11 05:48:46;;;;;;;369.47;171.27;;;;;;;;;;4951914;28;20595;-54
2022/09/11 05:51:20;;;;;;;384.90;180.53;;;;;;;;;;4954147;28;20194;-53
2022/09/11 05:53:46;;;;;;;332.87;165.10;;;;;;;;;;4949969;28;20194;-53
2022/09/11 05:56:16;;;;;;;340.00;165.10;;;;;;;;;;4954432;28;20670;-53
2022/09/11 05:58:43;;;;;;;325.10;158.70;;;;;;;;;;4950624;28;20278;-53
2022/09/11 06:01:10;;;;;;;313.20;153.17;;;;;;;;;;4954851;28;20233;-53
2022/09/11 06:03:36;;;;;;;372.53;181.40;;;;;;;;;;4951312;28;20193;-53
2022/09/11 06:06:03;;;;;;;335.07;167.33;;;;;;;;;;4951820;28;20189;-53
2022/09/11 06:08:30;;;;;;;373.57;182.53;;;;;;;;;;4954584;28;20521;-53
2022/09/11 06:10:57;;;;;;;329.03;170.43;;;;;;;;;;4953235;28;20599;-53
2022/09/11 06:13:23;;;;;;;340.57;171.27;;;;;;;;;;4950469;28;20208;-53
2022/09/11 06:15:49;;;;;;;337.13;166.70;;;;;;;;;;4955009;28;20203;-53
2022/09/11 06:18:16;;;;;;;328.37;164.70;;;;;;;;;;4951261;28;20222;-53
2022/09/11 06:20:42;;;;;;;411.17;201.10;;;;;;;;;;4945512;28;20183;-53
2022/09/11 06:23:08;;;;;;;408.23;189.17;;;;;;;;;;4931022;28;20286;-53
2022/09/11 06:25:35;;;;;;;386.57;181.53;;;;;;;;;;4947431;28;20213;-53
2022/09/11 06:28:01;;;;;;;382.33;176.87;;;;;;;;;;4940142;28;20206;-53
2022/09/11 06:30:27;;;;;;;307.83;151.10;;;;;;;;;;4944133;28;20898;-53
2022/09/11 06:32:55;;;;;;;316.97;155.30;;;;;;;;;;4956437;28;20193;-53
2022/09/11 06:35:22;;;;;;;390.03;186.10;;;;;;;;;;4944850;28;20611;-53
2022/09/11 06:37:48;;;;;;;336.43;167.33;;;;;;;;;;4941689;28;20206;-53
2022/09/11 06:40:14;;;;;;;325.90;171.50;;;;;;;;;;4946850;28;20678;-53
2022/09/11 06:42:40;;;;;;;355.47;177.53;;;;;;;;;;4951873;28;20638;-53
2022/09/11 06:45:07;;;;;;;353.97;181.93;;;;;;;;;;4947116;28;20218;-53
2022/09/11 06:47:33;;;;;;;363.20;185.53;;;;;;;;;;4954777;28;20186;-53
2022/09/11 06:49:59;;;;;;;335.93;168.13;;;;;;;;;;4951731;28;20529;-53
2022/09/11 06:52:26;;;;;;;413.57;197.53;;;;;;;;;;4946244;28;20672;-53
2022/09/11 06:54:53;;;;;;;324.77;161.00;;;;;;;;;;4941087;28;20246;-53
2022/09/11 06:57:19;;;;;;;336.60;166.30;;;;;;;;;;4959577;28;20329;-53
2022/09/11 06:59:46;;;;;;;371.90;187.07;;;;;;;;;;4951213;28;20559;-53
2022/09/11 07:02:12;;;;;;;407.23;201.20;;;;;;;;;;4952602;28;20623;-53
2022/09/11 07:04:38;;;;;;;371.97;182.80;;;;;;;;;;4948893;28;20210;-53
2022/09/11 07:07:04;;;;;;;487.73;221.63;;;;;;;;;;4936900;28;20546;-54
2022/09/11 07:09:30;;;;;;;384.90;179.73;;;;;;;;;;4943338;28;20195;-54
2022/09/11 07:11:56;;;;;;;379.43;179.10;;;;;;;;;;4954547;28;20183;-52
2022/09/11 07:14:22;;;;;;;387.93;191.57;;;;;;;;;;4946020;28;20453;-53
2022/09/11 07:16:49;;;;;;;376.03;183.63;;;;;;;;;;4945297;28;20213;-53
2022/09/11 07:19:17;;;;;;;402.67;193.87;;;;;;;;;;4946771;28;20297;-53
2022/09/11 07:21:43;;;;;;;334.50;167.47;;;;;;;;;;4951331;28;20343;-53
2022/09/11 07:24:09;;;;;;;363.77;182.73;;;;;;;;;;4952323;28;20359;-53
2022/09/11 07:26:35;;;;;;;357.97;179.30;;;;;;;;;;4958628;28;20186;-53
2022/09/11 07:29:01;;;;;;;366.83;184.30;;;;;;;;;;4944804;28;20206;-53
2022/09/11 07:31:29;;;;;;;338.83;173.17;;;;;;;;;;4952477;28;20202;-53
2022/09/11 07:33:55;;;;;;;332.17;166.60;;;;;;;;;;4946670;28;20207;-53
2022/09/11 07:36:23;;;;;;;406.73;202.60;;;;;;;;;;4954880;28;20334;-53
2022/09/11 07:38:50;;;;;;;340.87;173.63;;;;;;;;;;4952086;28;20199;-52
2022/09/11 07:41:17;;;;;;;371.50;185.50;;;;;;;;;;4948714;28;20214;-52
2022/09/11 07:43:49;;;;;;;360.73;180.03;;;;;;;;;;4947037;28;20914;-53
2022/09/11 07:46:16;;;;;;;419.07;211.80;;;;;;;;;;4946422;28;20191;-53
2022/09/11 07:48:42;;;;;;;386.57;197.83;;;;;;;;;;4948904;28;20201;-53
2022/09/11 07:51:09;;;;;;;344.67;177.80;;;;;;;;;;4956454;28;20249;-54
2022/09/11 07:53:36;;;;;;;372.37;190.80;;;;;;;;;;4957453;28;20600;-53
2022/09/11 07:56:03;;;;;;;424.97;212.80;;;;;;;;;;4948226;28;20194;-52
2022/09/11 07:58:37;;;;;;;416.17;210.97;;;;;;;;;;4938362;28;20191;-53
2022/09/11 08:01:04;;;;;;;411.33;206.87;;;;;;;;;;4942001;28;20646;-53
2022/09/11 08:03:30;;;;;;;420.07;211.17;;;;;;;;;;4954561;28;20182;-52
2022/09/11 08:05:59;;;;;;;348.88;181.55;;;;;;;;;;4947786;28;20204;-52
2022/09/11 08:08:27;;;;;;;363.73;185.23;;;;;;;;;;4954338;28;20190;-53
2022/09/11 08:10:55;;;;;;;346.03;178.07;;;;;;;;;;4955690;28;20209;-53
2022/09/11 08:13:21;;;;;;;431.73;216.50;;;;;;;;;;4953703;28;20560;-53
2022/09/11 08:15:47;;;;;;;410.90;202.20;;;;;;;;;;4955686;28;20190;-53
2022/09/11 08:18:13;;;;;;;389.55;198.57;;;;;;;;;;4955504;28;20508;-53
2022/09/11 08:20:40;;;;;;;384.10;195.27;;;;;;;;;;4954050;28;20584;-53
2022/09/11 08:23:06;;;;;;;381.42;199.48;;;;;;;;;;4947976;28;20337;-51
2022/09/11 08:25:34;;;;;;;397.75;204.05;;;;;;;;;;4946283;28;20272;-51
2022/09/11 08:28:00;;;;;;;382.03;201.53;;;;;;;;;;4950365;28;20188;-51
2022/09/11 08:30:26;;;;;;;389.63;195.87;;;;;;;;;;4948516;28;20190;-51
2022/09/11 08:32:52;;;;;;;335.02;177.13;;;;;;;;;;4944932;28;20616;-51
2022/09/11 08:35:19;;;;;;;433.48;214.63;;;;;;;;;;4943529;28;20682;-51
2022/09/11 08:37:45;;;;;;;416.23;210.35;;;;;;;;;;4939920;28;20194;-51
2022/09/11 08:40:11;;;;;;;408.70;203.95;;;;;;;;;;4938807;28;20211;-51
2022/09/11 08:42:40;;;;;;;450.40;214.32;;;;;;;;;;4939718;28;20281;-51
2022/09/11 08:45:06;;;;;;;426.85;212.63;;;;;;;;;;4943873;28;20271;-51
2022/09/11 08:47:36;;;;;;;382.60;184.93;;;;;;;;;;4947566;28;20672;-51
2022/09/11 08:50:16;;;;;;;429.75;198.30;;;;;;;;;;4927865;28;20273;-53
2022/09/11 08:52:42;;;;;;;386.58;183.35;;;;;;;;;;4939233;28;20241;-53
2022/09/11 08:55:12;;;;;;;376.70;183.77;;;;;;;;;;4939063;28;20269;-53
2022/09/11 08:57:49;;;;;;;441.33;201.60;;;;;;;;;;4941473;28;20193;-53
2022/09/11 09:00:36;;;;;;;404.77;188.80;;;;;;;;;;4941993;28;20206;-53
2022/09/11 09:03:17;;;;;;;439.08;204.20;;;;;;;;;;4945705;28;20274;-53
2022/09/11 09:06:03;;;;;;;441.33;225.70;;;;;;;;;;4942988;28;20366;-53
2022/09/11 09:09:04;;;;;;;430.80;197.35;;;;;;;;;;4943769;28;20199;-53
2022/09/11 09:11:34;;;;;;;398.88;191.02;;;;;;;;;;4925689;28;20246;-53
2022/09/11 09:14:25;;;;;;;383.88;188.07;;;;;;;;;;4936260;28;20210;-53
2022/09/11 09:17:00;;;;;;;403.25;185.55;;;;;;;;;;4941674;28;20193;-53
2022/09/11 09:19:29;;;;;;;415.33;190.32;;;;;;;;;;4941896;28;20189;-53
2022/09/11 09:22:01;;;;;;;413.65;193.35;;;;;;;;;;4946583;28;20194;-53
2022/09/11 09:24:30;;;;;;;417.00;195.40;;;;;;;;;;4942065;28;20245;-53
2022/09/11 09:26:56;;;;;;;404.17;190.35;;;;;;;;;;4950521;28;20198;-53
2022/09/11 09:29:24;;;;;;;381.42;187.80;;;;;;;;;;4958812;28;20182;-53
2022/09/11 09:31:51;;;;;;;422.55;202.68;;;;;;;;;;4941829;28;20214;-53
2022/09/11 09:34:22;;;;;;;385.30;192.35;;;;;;;;;;4943955;28;20234;-53
2022/09/11 09:36:57;;;;;;;385.85;191.48;;;;;;;;;;4944183;28;20290;-53
2022/09/11 09:39:23;;;;;;;383.52;184.95;;;;;;;;;;4938975;28;20247;-53
2022/09/11 09:41:58;;;;;;;428.67;200.02;;;;;;;;;;4954507;28;20186;-53
2022/09/11 09:44:33;;;;;;;405.08;202.10;;;;;;;;;;4946852;28;20241;-53
2022/09/11 09:46:59;;;;;;;359.58;187.45;;;;;;;;;;4953885;28;20232;-53
2022/09/11 09:49:26;;;;;;;387.60;191.70;;;;;;;;;;4950875;28;20191;-53
2022/09/11 09:51:57;;;;;;;357.98;186.10;;;;;;;;;;4949760;28;20186;-53
2022/09/11 09:54:25;;;;;;;358.58;182.80;;;;;;;;;;4952763;28;20206;-53
2022/09/11 09:57:01;;;;;;;420.92;218.32;;;;;;;;;;4946497;28;20219;-53
2022/09/11 09:59:41;;;;;;;372.73;191.70;;;;;;;;;;4954444;28;20193;-53
2022/09/11 10:02:07;;;;;;;401.25;205.43;;;;;;;;;;4946562;28;20191;-53
2022/09/11 10:04:33;;;;;;;409.80;208.40;;;;;;;;;;4950390;28;20211;-53
2022/09/11 10:07:13;;;;;;;362.10;183.93;;;;;;;;;;4955385;28;20635;-53
2022/09/11 10:09:47;;;;;;;355.80;190.82;;;;;;;;;;4959472;28;20345;-53
2022/09/11 10:12:31;;;;;;;395.17;205.02;;;;;;;;;;4951886;28;20185;-53
2022/09/11 10:14:57;;;;;;;361.83;190.63;;;;;;;;;;4948220;28;20256;-53
2022/09/11 10:17:30;;;;;;;404.67;201.35;;;;;;;;;;4949007;28;20195;-53
2022/09/11 10:20:12;;;;;;;421.67;212.13;;;;;;;;;;4942414;28;20294;-54
2022/09/11 10:22:38;;;;;;;412.05;212.80;;;;;;;;;;4949411;28;20195;-54
2022/09/11 10:25:12;;;;;;;364.40;190.70;;;;;;;;;;4942955;28;20214;-54
2022/09/11 10:27:42;;;;;;;397.92;199.07;;;;;;;;;;4940242;28;20824;-54
2022/09/11 10:30:23;;;;;;;389.42;201.13;;;;;;;;;;4951755;28;20607;-54
2022/09/11 10:32:49;;;;;;;340.27;177.13;;;;;;;;;;4948950;28;20183;-53
2022/09/11 10:35:16;;;;;;;351.35;189.15;;;;;;;;;;4950335;28;20203;-54
2022/09/11 10:37:42;;;;;;;397.67;202.90;;;;;;;;;;4946177;28;20544;-53
2022/09/11 10:40:18;;;;;;;368.05;190.85;;;;;;;;;;4945307;28;20284;-53
2022/09/11 10:42:45;;;;;;;390.58;195.80;;;;;;;;;;4945108;28;20214;-53
2022/09/11 10:45:15;;;;;;;462.13;221.75;;;;;;;;;;4945281;28;20261;-53
2022/09/11 10:47:42;;;;;;;431.60;214.48;;;;;;;;;;4943499;28;24877;-54
2022/09/11 10:50:16;;;;;;;348.20;181.15;;;;;;;;;;4946895;28;20543;-53
2022/09/11 10:52:48;;;;;;;407.70;207.07;;;;;;;;;;4943115;28;21254;-53
2022/09/11 10:55:14;;;;;;;411.23;197.93;;;;;;;;;;4943972;28;20237;-53
2022/09/11 10:57:43;;;;;;;392.50;191.02;;;;;;;;;;4939132;28;20213;-53
2022/09/11 11:00:13;;;;;;;382.23;188.68;;;;;;;;;;4949355;28;20341;-53
2022/09/11 11:02:43;;;;;;;375.05;200.02;;;;;;;;;;4950582;28;20195;-54
2022/09/11 11:05:30;;;;;;;436.25;210.65;;;;;;;;;;4945282;28;20214;-54
2022/09/11 11:08:04;;;;;;;391.90;193.65;;;;;;;;;;4950271;28;20318;-55
2022/09/11 11:10:31;;;;;;;452.58;212.13;;;;;;;;;;4948164;28;20226;-54
2022/09/11 11:12:57;;;;;;;350.42;178.98;;;;;;;;;;4953834;28;20191;-54
2022/09/11 11:15:23;;;;;;;373.55;188.13;;;;;;;;;;4955292;28;20562;-54
2022/09/11 11:17:54;;;;;;;362.63;187.63;;;;;;;;;;4955435;28;20194;-54
2022/09/11 11:20:25;;;;;;;382.67;191.27;;;;;;;;;;4949530;28;20176;-54
2022/09/11 11:23:06;;;;;;;408.42;203.80;;;;;;;;;;4951078;28;21772;-54
2022/09/11 11:25:43;;;;;;;397.17;200.60;;;;;;;;;;4949662;28;20843;-54
2022/09/11 11:28:10;;;;;;;387.63;195.38;;;;;;;;;;4949076;28;20194;-54
2022/09/11 11:30:41;;;;;;;420.05;212.05;;;;;;;;;;4950928;28;20194;-54
2022/09/11 11:33:21;;;;;;;378.05;193.85;;;;;;;;;;4945020;28;20245;-54
2022/09/11 11:36:00;;;;;;;444.20;213.23;;;;;;;;;;4950174;28;20222;-54
2022/09/11 11:38:41;;;;;;;428.83;210.25;;;;;;;;;;4953547;28;20201;-54
2022/09/11 11:41:28;;;;;;;367.45;188.75;;;;;;;;;;4971929;28;20852;-54
2022/09/11 11:43:56;;;;;;;373.42;198.50;;;;;;;;;;4953135;28;20222;-54
2022/09/11 11:46:22;;;;;;;421.33;216.88;;;;;;;;;;4950460;28;20277;-54
2022/09/11 11:48:48;;;;;;;343.83;182.05;;;;;;;;;;4954458;28;20539;-54
2022/09/11 11:51:17;;;;;;;394.52;205.65;;;;;;;;;;4953055;28;20195;-54
2022/09/11 11:53:48;;;;;;;375.95;200.63;;;;;;;;;;4954837;28;20221;-54
2022/09/11 11:56:18;;;;;;;392.33;206.55;;;;;;;;;;4960025;28;20209;-54
2022/09/11 11:58:46;;;;;;;369.20;198.55;;;;;;;;;;4957242;28;20651;-54
2022/09/11 12:01:32;;;;;;;407.65;214.90;;;;;;;;;;4950584;28;20187;-54
2022/09/11 12:04:10;;;;;;;398.88;217.85;;;;;;;;;;4952356;28;20207;-54
2022/09/11 12:06:36;;;;;;;393.45;212.70;;;;;;;;;;4952355;28;20761;-54
2022/09/11 12:09:03;;;;;;;348.60;198.52;;;;;;;;;;4952797;28;20182;-54
2022/09/11 12:11:30;;;;;;;366.90;204.02;;;;;;;;;;4955425;28;20194;-54
2022/09/11 12:13:57;;;;;;;394.17;217.98;;;;;;;;;;4953610;28;20687;-54
2022/09/11 12:16:31;;;;;;;422.27;224.45;;;;;;;;;;4943035;28;20305;-54
2022/09/11 12:19:03;;;;;;;373.25;194.95;;;;;;;;;;4954045;28;20189;-54
2022/09/11 12:21:30;;;;;;;342.92;183.18;;;;;;;;;;4957861;28;20201;-54
2022/09/11 12:23:56;;;;;;;394.05;203.02;;;;;;;;;;4955419;28;20206;-55
2022/09/11 12:26:23;;;;;;;431.88;220.13;;;;;;;;;;4950587;28;20246;-54
2022/09/11 12:28:50;;;;;;;364.77;195.30;;;;;;;;;;4953076;28;20587;-54
2022/09/11 12:31:17;;;;;;;350.50;187.15;;;;;;;;;;4955470;28;20182;-54
2022/09/11 12:33:43;;;;;;;409.10;217.57;;;;;;;;;;4950860;28;20334;-54
2022/09/11 12:36:09;;;;;;;384.90;205.95;;;;;;;;;;4948721;28;20213;-54
2022/09/11 12:38:39;;;;;;;423.55;224.50;;;;;;;;;;4950126;28;20606;-54
2022/09/11 12:41:13;;;;;;;406.52;210.88;;;;;;;;;;4950401;28;20197;-54
2022/09/11 12:43:40;;;;;;;;;;;;;;;;;;4944969;28;20193;-54
2022/09/11 12:46:21;;;;;;;390.70;203.48;;;;;;;;;;4949196;28;21038;-54
2022/09/11 12:48:47;;;;;;;364.58;196.98;;;;;;;;;;4947237;28;21350;-54
2022/09/11 12:51:37;;;;;;;414.80;212.02;;;;;;;;;;4947167;28;21250;-54
2022/09/11 12:54:29;;;;;;;401.10;208.80;;;;;;;;;;4956674;28;20225;-54
2022/09/11 12:57:01;;;;;;;391.65;202.98;;;;;;;;;;4949200;28;20202;-54
2022/09/11 12:59:32;;;;;;;401.10;202.60;;;;;;;;;;4947886;28;20182;-54
2022/09/11 13:01:58;;;;;;;396.85;214.90;;;;;;;;;;4956366;28;20191;-54
2022/09/11 13:04:25;;;;;;;432.63;216.00;;;;;;;;;;4946654;28;20312;-54
2022/09/11 13:06:53;;;;;;;392.75;204.63;;;;;;;;;;4953781;28;20197;-54
2022/09/11 13:09:24;;;;;;;407.52;202.23;;;;;;;;;;4936513;28;20178;-54
2022/09/11 13:11:52;;;;;;;366.42;190.68;;;;;;;;;;4956456;28;20670;-54
2022/09/11 13:14:24;;;;;;;378.65;198.65;;;;;;;;;;4953521;28;25124;-54
2022/09/11 13:16:51;;;;;;;363.92;191.77;;;;;;;;;;4970478;28;20338;-54
2022/09/11 13:19:19;;;;;;;372.80;199.25;;;;;;;;;;4958497;28;20230;-54
2022/09/11 13:21:47;;;;;;;345.35;180.38;;;;;;;;;;4954520;28;20190;-54
2022/09/11 13:24:39;;;;;;;360.25;200.13;;;;;;;;;;4959863;28;20211;-54
2022/09/11 13:27:05;;;;;;;366.83;206.00;;;;;;;;;;4952308;28;20197;-55
2022/09/11 13:29:33;;;;;;;387.63;223.02;;;;;;;;;;4955250;28;20281;-54
2022/09/11 13:32:04;;;;;;;368.48;213.65;;;;;;;;;;4955479;28;20183;-54
2022/09/11 13:34:34;;;;;;;342.23;204.25;;;;;;;;;;4958084;28;20214;-55
2022/09/11 13:37:00;;;;;;;394.00;232.30;;;;;;;;;;4960670;28;20190;-54
2022/09/11 13:39:27;;;;;;;361.67;216.40;;;;;;;;;;4957431;28;20207;-55
2022/09/11 13:41:58;;;;;;;417.75;247.57;;;;;;;;;;4957062;28;20599;-54
2022/09/11 13:44:30;;;;;;;403.85;240.15;;;;;;;;;;4955090;28;20210;-55
2022/09/11 13:46:56;;;;;;;382.25;229.20;;;;;;;;;;4954760;28;20720;-54
2022/09/11 13:49:34;;;;;;;375.45;218.65;;;;;;;;;;4954457;28;20620;-54
2022/09/11 13:52:00;;;;;;;355.15;205.60;;;;;;;;;;4949050;28;20194;-54
2022/09/11 13:54:30;;;;;;;408.05;232.18;;;;;;;;;;4951609;28;20636;-54
2022/09/11 13:56:56;;;;;;;398.30;224.57;;;;;;;;;;4949568;28;20749;-54
2022/09/11 13:59:35;;;;;;;441.63;235.25;;;;;;;;;;4955018;28;20190;-54
2022/09/11 14:02:02;;;;;;;378.58;210.60;;;;;;;;;;4956589;28;20272;-54
2022/09/11 14:04:28;;;;;;;369.60;219.88;;;;;;;;;;4952509;28;20266;-54
2022/09/11 14:06:55;;;;;;;390.63;224.63;;;;;;;;;;4956057;28;20306;-54